createdAt,value
2023-03-29T00:02:11.325Z,16.99
2023-03-29T00:07:14.382Z,16.97
2023-03-29T00:12:16.719Z,17.03
2023-03-29T00:17:19.011Z,17.04
2023-03-29T00:22:21.614Z,17.04
2023-03-29T00:27:23.787Z,17.05
2023-03-29T00:32:26.624Z,17.04
2023-03-29T00:37:30.163Z,17.03
2023-03-29T00:42:32.372Z,17.01
2023-03-29T00:47:45.734Z,17.02
2023-03-29T00:52:57.431Z,17.02
2023-03-29T00:58:01.173Z,17.03
2023-03-29T01:03:09.255Z,17.01
2023-03-29T01:08:25.887Z,16.99
2023-03-29T01:13:39.540Z,16.99
2023-03-29T01:18:42.201Z,17.01
2023-03-29T01:24:07.280Z,17.01
2023-03-29T01:29:27.877Z,17.01
2023-03-29T01:34:44.024Z,16.98
2023-03-29T01:39:46.749Z,16.99
2023-03-29T01:45:18.312Z,16.99
2023-03-29T01:50:23.184Z,17.00
2023-03-29T01:55:32.220Z,16.98
2023-03-29T02:00:36.477Z,16.96
2023-03-29T02:05:40.262Z,16.98
2023-03-29T02:10:42.755Z,16.96
2023-03-29T02:15:46.900Z,16.96
2023-03-29T02:20:51.100Z,16.98
2023-03-29T02:25:54.952Z,16.98
2023-03-29T02:31:01.665Z,16.96
2023-03-29T02:36:13.659Z,16.95
2023-03-29T02:41:18.253Z,16.97
2023-03-29T02:46:21.649Z,16.97
2023-03-29T02:51:30.239Z,16.96
2023-03-29T02:56:43.553Z,16.94
2023-03-29T03:01:46.233Z,16.94
2023-03-29T03:06:49.274Z,16.94
2023-03-29T03:11:51.479Z,16.95
2023-03-29T03:16:53.719Z,16.94
2023-03-29T03:21:56.300Z,16.94
2023-03-29T03:26:58.848Z,16.95
2023-03-29T03:32:01.140Z,16.94
2023-03-29T03:37:12.556Z,16.94
2023-03-29T03:42:15.020Z,16.92
2023-03-29T03:47:20.582Z,16.90
2023-03-29T03:52:22.838Z,16.90
2023-03-29T03:57:25.706Z,16.90
2023-03-29T04:02:28.751Z,16.83
2023-03-29T04:07:30.984Z,16.91
2023-03-29T04:12:39.681Z,16.92
2023-03-29T04:17:43.035Z,16.88
2023-03-29T04:23:14.815Z,16.89
2023-03-29T04:28:19.560Z,16.92
2023-03-29T04:33:40.879Z,16.92
2023-03-29T04:38:47.390Z,16.90
2023-03-29T04:43:52.403Z,16.89
2023-03-29T04:49:01.861Z,16.88
2023-03-29T04:54:10.276Z,16.88
2023-03-29T04:59:35.492Z,16.89
2023-03-29T05:04:43.712Z,16.87
2023-03-29T05:09:49.737Z,16.78
2023-03-29T05:14:52.017Z,16.86
2023-03-29T05:19:55.607Z,16.86
2023-03-29T05:25:01.217Z,16.88
2023-03-29T05:30:04.033Z,16.86
2023-03-29T05:35:18.627Z,16.84
2023-03-29T05:40:21.121Z,16.83
2023-03-29T05:45:45.904Z,16.83
2023-03-29T05:50:50.013Z,16.83
2023-03-29T05:55:53.484Z,16.82
2023-03-29T06:01:00.878Z,16.83
2023-03-29T06:06:27.047Z,16.82
2023-03-29T06:11:29.515Z,16.81
2023-03-29T06:16:50.321Z,16.81
2023-03-29T06:21:54.448Z,16.84
2023-03-29T06:27:00.696Z,16.84
2023-03-29T06:32:05.791Z,16.81
2023-03-29T06:37:29.409Z,16.78
2023-03-29T06:42:41.097Z,16.81
2023-03-29T06:48:05.124Z,16.81
2023-03-29T06:53:07.678Z,16.82
2023-03-29T06:58:11.277Z,16.80
2023-03-29T07:03:20.824Z,16.78
2023-03-29T07:08:31.489Z,16.79
2023-03-29T07:13:37.562Z,16.79
2023-03-29T07:18:44.522Z,16.79
2023-03-29T07:23:52.476Z,16.74
2023-03-29T07:28:55.187Z,16.77
2023-03-29T07:33:57.795Z,16.75
2023-03-29T07:39:02.199Z,16.79
2023-03-29T07:44:09.375Z,16.72
2023-03-29T07:49:11.572Z,16.77
2023-03-29T07:54:13.909Z,16.77
2023-03-29T07:59:39.214Z,16.76
2023-03-29T08:04:48.726Z,16.75
2023-03-29T08:09:51.029Z,16.75
2023-03-29T08:14:55.922Z,16.75
2023-03-29T08:20:11.486Z,16.77
2023-03-29T08:25:16.867Z,16.78
2023-03-29T08:30:23.275Z,16.78
2023-03-29T08:35:26.810Z,16.77
2023-03-29T08:40:49.034Z,16.75
2023-03-29T08:46:47.657Z,16.75
2023-03-29T08:52:04.790Z,16.75
2023-03-29T08:57:41.050Z,16.75
2023-03-29T09:02:49.701Z,16.77
2023-03-29T09:07:53.509Z,16.78
2023-03-29T09:13:02.877Z,16.76
2023-03-29T09:18:22.012Z,16.75
2023-03-29T09:23:47.811Z,16.77
2023-03-29T09:29:33.165Z,16.78
2023-03-29T09:35:08.171Z,16.77
2023-03-29T09:40:17.976Z,16.76
2023-03-29T09:45:31.959Z,16.76
2023-03-29T09:50:41.503Z,16.78
2023-03-29T09:55:50.240Z,16.79
2023-03-29T10:01:15.902Z,16.79
2023-03-29T10:06:20.101Z,16.79
2023-03-29T10:11:33.547Z,16.78
2023-03-29T10:16:47.881Z,16.79
2023-03-29T10:21:53.115Z,16.79
2023-03-29T10:27:00.393Z,16.78
2023-03-29T10:32:02.834Z,16.79
2023-03-29T10:37:06.830Z,16.82
2023-03-29T10:42:15.185Z,16.82
2023-03-29T10:47:21.011Z,16.80
2023-03-29T10:52:23.324Z,16.82
2023-03-29T10:57:44.578Z,16.82
2023-03-29T11:03:17.063Z,16.82
2023-03-29T11:08:52.803Z,16.83
2023-03-29T11:14:11.738Z,16.83
2023-03-29T11:19:34.968Z,16.84
2023-03-29T11:24:57.764Z,16.85
2023-03-29T11:30:13.643Z,16.86
2023-03-29T11:35:29.881Z,16.85
2023-03-29T11:40:43.161Z,16.85
2023-03-29T11:45:52.628Z,16.88
2023-03-29T11:51:01.694Z,16.87
2023-03-29T11:56:12.468Z,16.87
2023-03-29T12:01:19.174Z,16.86
2023-03-29T12:06:28.741Z,16.86
2023-03-29T12:11:51.231Z,16.86
2023-03-29T12:16:57.313Z,16.89
2023-03-29T12:22:00.804Z,16.89
2023-03-29T12:27:16.652Z,16.86
2023-03-29T12:33:02.292Z,16.87
2023-03-29T12:38:24.632Z,16.90
2023-03-29T12:43:53.332Z,16.90
2023-03-29T12:49:36.142Z,16.90
2023-03-29T12:54:38.583Z,16.90
2023-03-29T12:59:47.034Z,16.92
2023-03-29T13:04:57.502Z,16.92
2023-03-29T13:10:31.580Z,16.92
2023-03-29T13:15:37.312Z,16.92
2023-03-29T13:21:21.244Z,16.92
2023-03-29T13:26:52.042Z,16.93
2023-03-29T13:32:14.301Z,16.95
2023-03-29T13:37:31.339Z,16.96
2023-03-29T13:42:33.388Z,16.94
2023-03-29T13:47:48.933Z,16.95
2023-03-29T13:53:42.345Z,16.94
2023-03-29T13:59:13.678Z,16.97
2023-03-29T14:04:25.171Z,16.97
2023-03-29T14:09:33.528Z,16.98
2023-03-29T14:14:38.696Z,16.99
2023-03-29T14:19:49.143Z,16.98
2023-03-29T14:24:54.703Z,16.96
2023-03-29T14:29:57.139Z,16.99
2023-03-29T14:35:00.816Z,17.01
2023-03-29T14:40:05.344Z,17.01
2023-03-29T14:45:09.692Z,17.01
2023-03-29T14:50:22.448Z,16.99
2023-03-29T14:55:25.174Z,17.02
2023-03-29T15:00:30.750Z,17.04
2023-03-29T15:05:47.394Z,17.05
2023-03-29T15:10:49.749Z,17.04
2023-03-29T15:16:02.339Z,17.04
2023-03-29T15:21:07.554Z,17.06
2023-03-29T15:26:15.971Z,17.06
2023-03-29T15:31:20.310Z,17.06
2023-03-29T15:36:22.493Z,17.07
2023-03-29T15:41:24.763Z,17.07
2023-03-29T15:46:27.608Z,17.08
2023-03-29T15:51:29.826Z,17.10
2023-03-29T15:56:37.571Z,17.09
2023-03-29T16:01:40.392Z,17.10
2023-03-29T16:06:44.422Z,17.12
2023-03-29T16:11:47.363Z,17.12
2023-03-29T16:16:50.904Z,17.10
2023-03-29T16:21:53.820Z,17.10
2023-03-29T16:26:57.387Z,17.14
2023-03-29T16:31:59.650Z,17.12
2023-03-29T16:37:01.863Z,17.13
2023-03-29T16:42:04.502Z,17.16
2023-03-29T16:47:07.206Z,17.15
2023-03-29T16:52:09.425Z,17.16
2023-03-29T16:57:11.542Z,17.18
2023-03-29T17:02:13.637Z,17.19
2023-03-29T17:07:16.037Z,17.19
2023-03-29T17:12:19.322Z,17.19
2023-03-29T17:17:21.582Z,17.20
2023-03-29T17:22:24.676Z,17.20
2023-03-29T17:27:26.849Z,17.19
2023-03-29T17:32:28.934Z,17.19
2023-03-29T17:37:31.351Z,17.22
2023-03-29T17:42:33.433Z,17.21
2023-03-29T17:47:35.678Z,17.23
2023-03-29T17:52:39.893Z,17.23
2023-03-29T17:57:42.963Z,17.22
2023-03-29T18:02:45.265Z,17.24
2023-03-29T18:07:47.432Z,17.25
2023-03-29T18:12:49.392Z,17.25
2023-03-29T18:17:51.633Z,17.26
2023-03-29T18:22:53.848Z,17.28
2023-03-29T18:27:56.189Z,17.26
2023-03-29T18:32:58.535Z,17.25
2023-03-29T18:38:00.671Z,17.26
2023-03-29T18:43:02.672Z,17.26
2023-03-29T18:48:05.722Z,17.28
2023-03-29T18:53:08.320Z,17.22
2023-03-29T18:58:15.057Z,17.27
2023-03-29T19:03:17.341Z,17.28
2023-03-29T19:08:19.615Z,17.28
2023-03-29T19:13:21.811Z,17.25
2023-03-29T19:18:24.026Z,17.28
2023-03-29T19:23:28.544Z,17.25
2023-03-29T19:28:32.290Z,17.27
2023-03-29T19:33:34.471Z,17.27
2023-03-29T19:38:36.992Z,17.28
2023-03-29T19:43:39.157Z,17.27
2023-03-29T19:48:41.531Z,17.27
2023-03-29T19:53:43.711Z,17.27
2023-03-29T19:58:47.005Z,17.28
2023-03-29T20:03:50.444Z,17.27
2023-03-29T20:08:53.242Z,17.28
2023-03-29T20:13:55.656Z,17.28
2023-03-29T20:19:02.081Z,17.27
2023-03-29T20:24:05.187Z,17.29
2023-03-29T20:29:07.581Z,17.29
2023-03-29T20:34:10.066Z,17.28
2023-03-29T20:39:12.422Z,17.28
2023-03-29T20:44:17.352Z,17.27
2023-03-29T20:49:26.649Z,17.30
2023-03-29T20:54:29.350Z,17.30
2023-03-29T20:59:31.897Z,17.28
2023-03-29T21:04:34.082Z,17.26
2023-03-29T21:09:36.598Z,17.28
2023-03-29T21:14:39.049Z,17.29
2023-03-29T21:19:41.697Z,17.30
2023-03-29T21:24:44.349Z,17.28
2023-03-29T21:29:46.487Z,17.27
2023-03-29T21:34:48.514Z,17.30
2023-03-29T21:39:50.761Z,17.32
2023-03-29T21:44:52.874Z,17.29
2023-03-29T21:49:54.974Z,17.22
2023-03-29T21:54:57.224Z,17.26
2023-03-29T21:59:59.316Z,17.28
2023-03-29T22:05:01.309Z,17.28
2023-03-29T22:10:06.321Z,17.29
2023-03-29T22:15:13.633Z,17.30
2023-03-29T22:20:15.686Z,17.28
2023-03-29T22:25:19.372Z,17.26
2023-03-29T22:30:22.968Z,17.26
2023-03-29T22:35:25.352Z,17.24
2023-03-29T22:40:27.432Z,17.31
2023-03-29T22:45:29.527Z,17.26
2023-03-29T22:50:31.880Z,17.28
2023-03-29T22:55:34.188Z,17.30
2023-03-29T23:00:36.759Z,17.29
2023-03-29T23:05:38.844Z,17.29
2023-03-29T23:10:40.863Z,17.26
2023-03-29T23:15:48.694Z,17.26
2023-03-29T23:20:52.965Z,17.28
2023-03-29T23:25:56.936Z,17.28
2023-03-29T23:31:10.272Z,17.27
2023-03-29T23:36:15.831Z,17.25
2023-03-29T23:41:18.948Z,17.24
2023-03-29T23:46:21.628Z,17.26
2023-03-29T23:51:28.291Z,17.29
2023-03-29T23:56:30.999Z,17.25
